Latest Coastal Weather Observations for Double Island Point

IDQ60701

Issued at 6:31 pm EST Wednesday 18 July 2018 (issued every 10 minutes, with the page automatically refreshed every 10 minutes)

About coastal observations | Map of coastal stations | Coastal observations for QLD | Marine services | Other Formats
Station Details ID: 040068 Name: DOUBLE ISLAND POINT LIGHTHOUSE Lat: -25.93 Lon: 153.19 Height: 95.64 m
Data from the previous 72 hours. | See also: Recent months at Double Island Point
Date/Time
EST
Temp
°C
Wind Pressure Rain since
9am
mm
Weather Cloud Vis
km
Sea
Height
m
Swell
Dir  Spd
kts
Gust
kts
hPa Trend Height
m
Period
s
Dir
18/06:30pm 18.2 NNW 4 5 1020.4 - 0.0 - - - - - - -
18/06:00pm 18.4 NNW 4 5 1020.1 - 0.0 - - - - - - -
18/05:30pm 17.8 NNW 5 6 1019.8 - 0.0 - - - - - - -
18/05:00pm 18.6 NNW 5 6 1019.6 - 0.0 - - - - - - -
18/04:30pm 18.9 NNW 5 6 1019.4 - 0.0 - - - - - - -
18/04:00pm 19.1 NNW 5 6 1019.3 - 0.0 - - - - - - -
18/03:30pm 19.2 NNW 5 6 1019.2 - 0.0 - - - - - - -
18/03:00pm 19.8 NNW 6 7 1019.2 - 0.0 - - - - - - -
18/02:30pm 20.6 NNW 5 6 1019.0 - 0.0 - - - - - - -
18/02:00pm 23.1 NW 5 6 1019.3 - 0.0 - - - - - - -
18/01:30pm 23.2 NW 4 7 1019.5 - 0.0 - - - - - - -
18/01:00pm 22.7 NW 5 8 1019.6 - 0.0 - - - - - - -
18/12:30pm 22.5 NNW 8 11 1019.8 - 0.0 - - - - - - -
18/12:00pm 22.1 NNW 8 11 1020.4 - 0.0 - - - - - - -
18/11:30am 21.4 NW 7 10 1020.7 - 0.0 - - - - - - -
18/11:00am 20.0 NW 8 11 1021.1 - 0.0 - - - - - - -
18/10:30am 18.9 WNW 10 13 1021.2 - 0.0 - - - - - - -
18/10:00am 18.4 NW 12 14 1021.4 - 0.0 - - - - - - -
18/09:30am 17.8 WNW 12 14 1021.4 - 0.0 - - - - - - -
18/09:00am 18.1 NW 10 12 1021.3 - 0.0 - - - - - - -
18/08:30am 17.6 WNW 9 11 1021.2 - 0.0 - - - - - - -
18/08:00am 17.2 WNW 8 10 1020.9 - 0.0 - - - - - - -
18/07:30am 16.6 WNW 9 10 1020.6 - 0.0 - - - - - - -
18/07:00am 16.2 WNW 11 11 1020.3 - 0.0 - - - - - - -
18/06:30am 16.2 WNW 10 11 1020.2 - 0.0 - - - - - - -
18/06:00am 16.1 WNW 11 12 1019.9 - 0.0 - - - - - - -
18/05:30am 16.0 W 10 11 1019.7 - 0.0 - - - - - - -
18/05:00am 16.0 W 10 11 1019.4 - 0.0 - - - - - - -
18/04:30am 16.3 W 9 9 1019.4 - 0.0 - - - - - - -
18/04:00am 16.0 W 10 11 1019.3 - 0.0 - - - - - - -
18/03:30am 15.8 W 11 11 1019.0 - 0.0 - - - - - - -
18/03:00am 16.4 WNW 10 11 1019.2 - 0.0 - - - - - - -
18/02:30am 16.5 WNW 11 11 1018.9 - 0.0 - - - - - - -
18/02:00am 16.4 NW 10 11 1018.8 - 0.0 - - - - - - -
18/01:30am 16.4 NW 8 10 1019.2 - 0.0 - - - - - - -
18/01:00am 17.0 N 7 9 1019.4 - 0.0 - - - - - - -
18/12:30am 17.4 NNE 7 8 1019.7 - 0.0 - - - - - - -
18/12:00am 17.8 NE 6 8 1019.7 - 0.0 - - - - - - -
 
Date/Time
EST
Temp
°C
Wind Pressure Rain since
9am
mm
Weather Cloud Vis
km
Sea
Height
m
Swell
Dir  Spd
kts
Gust
kts
hPa Trend Height
m
Period
s
Dir
17/11:30pm 17.9 NE 6 7 1019.7 - 0.0 - - - - - - -
17/11:00pm 18.1 NE 6 7 1019.8 - 0.0 - - - - - - -
17/10:30pm 18.0 ENE 6 8 1019.8 - 0.0 - - - - - - -
17/10:00pm 18.3 ENE 7 8 1019.8 - 0.0 - - - - - - -
17/09:30pm 18.2 ENE 9 11 1019.6 - 0.0 - - - - - - -
17/09:00pm 17.1 E 6 9 1019.5 - 0.0 - - - - - - -
17/08:30pm 17.4 E 7 8 1019.5 - 0.0 - - - - - - -
17/08:00pm 17.1 E 9 11 1019.4 - 0.0 - - - - - - -
17/07:30pm 17.2 ESE 9 12 1019.2 - 0.0 - - - - - - -
17/07:00pm 17.4 ESE 10 12 1018.9 - 0.0 - - - - - - -
17/06:30pm 17.2 ESE 9 12 1018.8 - 0.0 - - - - - - -
17/06:00pm 17.2 SE 10 12 1018.6 - 0.0 - - - - - - -
17/05:30pm 17.3 SE 11 13 1018.2 - 0.0 - - - - - - -
17/05:00pm 17.3 SSE 10 12 1018.1 - 0.0 - - - - - - -
17/04:30pm 17.4 SSE 11 14 1017.9 - 0.0 - - - - - - -
17/04:00pm 17.4 SSE 12 14 1017.8 - 0.0 - - - - - - -
17/03:30pm 17.6 SSE 11 13 1017.8 - 0.0 - - - - - - -
17/03:00pm 17.9 SSE 10 12 1017.7 - 0.0 - - - - - - -
17/02:30pm 18.1 SSE 9 11 1017.8 - 0.0 - - - - - - -
17/02:00pm 18.3 SSE 8 11 1017.8 - 0.0 - - - - - - -
17/01:30pm 18.2 SSE 8 10 1018.1 - 0.0 - - - - - - -
17/01:00pm 18.3 SSE 9 12 1018.1 - 0.0 - - - - - - -
17/12:30pm 18.0 SSE 9 12 1018.6 - 0.0 - - - - - - -
17/12:00pm 17.8 S 9 13 1019.2 - 0.0 - - - - - - -
17/11:30am 17.9 SSE 10 14 1019.5 - 0.0 - - - - - - -
17/11:00am 17.7 SSE 12 15 1019.6 - 0.0 - - - - - - -
17/10:30am 17.9 SSE 13 16 1019.6 - 0.0 - - - - - - -
17/10:00am 17.6 SSE 15 18 1019.6 - 0.0 - - - - - - -
17/09:30am 17.4 SSE 14 19 1019.6 - 0.0 - - - - - - -
17/09:00am 17.1 SSE 12 15 1019.3 - 0.0 - - - - - - -
17/08:30am 16.3 S 12 15 1019.3 - 0.0 - - - - - - -
17/08:00am 15.7 S 11 13 1018.8 - 0.0 - - - - - - -
17/07:30am 14.9 S 11 12 1018.6 - 0.0 - - - - - - -
17/07:00am 14.5 S 13 14 1018.2 - 0.0 - - - - - - -
17/06:30am 14.1 S 12 14 1018.0 - 0.0 - - - - - - -
17/06:00am 14.2 SSW 10 14 1017.5 - 0.0 - - - - - - -
17/05:30am 14.5 S 13 16 1017.3 - 0.0 - - - - - - -
17/05:00am 14.7 SSW 10 14 1017.2 - 0.0 - - - - - - -
17/04:30am 15.0 SSW 14 16 1016.9 - 0.0 - - - - - - -
17/04:00am 15.0 SSW 10 12 1016.9 - 0.0 - - - - - - -
17/03:30am 15.3 S 10 13 1016.8 - 0.0 - - - - - - -
17/03:00am 16.4 SSW 10 12 1016.7 - 0.0 - - - - - - -
17/02:30am 15.9 S 10 13 1016.8 - 0.0 - - - - - - -
17/02:00am 16.4 S 12 14 1016.8 - 0.0 - - - - - - -
17/01:30am 16.8 S 13 14 1016.9 - 0.0 - - - - - - -
17/01:00am 17.5 SSW 13 16 1016.9 - 0.0 - - - - - - -
17/12:30am 16.5 WSW 12 14 1016.8 - 0.0 - - - - - - -
17/12:00am 16.8 W 11 15 1016.8 - 0.0 - - - - - - -
 
Date/Time
EST
Temp
°C
Wind Pressure Rain since
9am
mm
Weather Cloud Vis
km
Sea
Height
m
Swell
Dir  Spd
kts
Gust
kts
hPa Trend Height
m
Period
s
Dir
16/11:30pm 16.8 W 11 15 1016.9 - 0.0 - - - - - - -
16/11:00pm 17.3 WNW 12 16 1016.8 - 0.0 - - - - - - -
16/10:30pm 17.1 WNW 12 17 1016.4 - 0.0 - - - - - - -
16/10:00pm 17.1 WNW 13 16 1016.5 - 0.0 - - - - - - -
16/09:30pm 16.8 NW 11 13 1016.2 - 0.0 - - - - - - -
16/09:00pm 17.0 NW 10 13 1016.1 - 0.0 - - - - - - -
16/08:30pm 17.2 NW 10 13 1015.9 - 0.0 - - - - - - -
16/08:00pm 17.0 NW 12 14 1015.7 - 0.0 - - - - - - -
16/07:30pm 17.2 NNW 9 12 1015.6 - 0.0 - - - - - - -
16/07:00pm 17.4 NW 10 12 1015.3 - 0.0 - - - - - - -
16/06:30pm 17.6 NNW 10 13 1014.8 - 0.0 - - - - - - -
16/06:00pm 17.9 NNW 10 14 1014.5 - 0.0 - - - - - - -
16/05:30pm 18.3 NNW 9 13 1014.2 - 0.0 - - - - - - -
16/05:00pm 18.8 N 5 11 1013.8 - 0.0 - - - - - - -
16/04:30pm 19.3 NNE 4 9 1013.5 - 0.0 - - - - - - -
16/04:00pm 20.4 N 4 7 1013.1 - 0.0 - - - - - - -
16/03:30pm 20.8 N 5 10 1012.9 - 0.0 - - - - - - -
16/03:00pm 21.0 N 6 13 1012.8 - 0.0 - - - - - - -
16/02:30pm 21.6 N 7 13 1012.9 - 0.0 - - - - - - -
16/02:00pm 21.9 N 8 14 1013.1 - 0.0 - - - - - - -
16/01:30pm 22.0 NNW 4 9 1013.4 - 0.0 - - - - - - -
16/01:00pm 22.5 NNW 4 6 1013.6 - 0.0 - - - - - - -
16/12:30pm 21.5 NNW 9 12 1014.3 - 0.0 - - - - - - -
16/12:00pm 22.0 NNW 6 8 1014.8 - 0.0 - - - - - - -
16/11:30am 21.5 NNW 5 9 1015.6 - 0.0 - - - - - - -
16/11:00am 20.2 NW 8 12 1015.9 - 0.0 - - - - - - -
16/10:30am 19.2 NW 10 13 1016.2 - 0.0 - - - - - - -
16/10:00am 19.5 NW 8 10 1016.3 - 0.0 - - - - - - -
16/09:30am 19.3 WNW 5 7 1016.5 - 0.0 - - - - - - -
16/09:00am 18.0 WNW 4 6 1016.5 - 0.0 - - - - - - -
16/08:30am 18.1 WNW 5 7 1016.6 - 0.0 - - - - - - -
16/08:00am 16.6 WNW 6 7 1016.5 - 0.0 - - - - - - -
16/07:30am 16.1 WNW 8 10 1016.6 - 0.0 - - - - - - -
16/07:00am 15.8 W 8 10 1016.5 - 0.0 - - - - - - -
16/06:30am 15.6 W 8 11 1016.3 - 0.0 - - - - - - -
16/06:00am 16.2 W 10 17 1016.1 - 0.0 - - - - - - -
16/05:30am 16.6 W 11 15 1015.8 - 0.0 - - - - - - -
16/05:00am 16.1 W 9 13 1015.7 - 0.0 - - - - - - -
16/04:30am 16.4 WNW 12 15 1015.6 - 0.0 - - - - - - -
16/04:00am 16.6 WNW 11 13 1015.4 - 0.0 - - - - - - -
16/03:30am 16.6 WNW 10 13 1015.6 - 0.0 - - - - - - -
16/03:00am 16.5 WNW 10 13 1015.7 - 0.0 - - - - - - -
16/02:30am 16.7 WNW 12 15 1015.8 - 0.0 - - - - - - -
16/02:00am 16.7 NW 12 15 1015.8 - 0.0 - - - - - - -
16/01:30am 17.0 NW 12 14 1016.0 - 0.0 - - - - - - -
16/01:00am 17.4 NNW 16 20 1016.0 - 0.0 - - - - - - -
16/12:30am 17.5 NNW 12 18 1016.0 - 0.0 - - - - - - -
16/12:00am 17.3 NNW 11 16 1016.4 - 0.0 - - - - - - -
 
Date/Time
EST
Temp
°C
Wind Pressure Rain since
9am
mm
Weather Cloud Vis
km
Sea
Height
m
Swell
Dir  Spd
kts
Gust
kts
hPa Trend Height
m
Period
s
Dir
15/11:30pm 17.0 NW 10 15 1016.4 - 0.0 - - - - - - -
15/11:00pm 17.3 NNW 9 12 1016.5 - 0.0 - - - - - - -
15/10:30pm 17.0 NW 8 11 1016.6 - 0.0 - - - - - - -
15/10:00pm 17.2 NW 6 8 1016.9 - 0.0 - - - - - - -
15/09:30pm 17.2 NW 6 9 1016.8 - 0.0 - - - - - - -
15/09:00pm 17.1 NNW 7 9 1016.9 - 0.0 - - - - - - -
15/08:30pm 17.0 NNW 3 5 1016.9 - 0.0 - - - - - - -
15/08:00pm 17.2 N 4 7 1016.8 - 0.0 - - - - - - -
15/07:30pm 17.6 N 5 11 1016.6 - 0.0 - - - - - - -
15/07:00pm 16.9 NNW 6 10 1016.4 - 0.0 - - - - - - -

Other Formats:

Comma delimited format used in spreadsheet applications
http://www.bom.gov.au/fwo/IDQ60701/IDQ60701.94584.axf

JavaScript Object Notation format (JSON) in row-major order
http://www.bom.gov.au/fwo/IDQ60701/IDQ60701.94584.json